createdAt,value
2022-10-17T00:00:45.329Z,15.60
2022-10-17T00:03:11.993Z,15.70
2022-10-17T00:05:46.433Z,15.70
2022-10-17T00:08:14.655Z,15.60
2022-10-17T00:10:42.292Z,15.70
2022-10-17T00:13:09.624Z,15.50
2022-10-17T00:15:36.258Z,15.50
2022-10-17T00:18:03.947Z,15.40
2022-10-17T00:20:32.568Z,15.40
2022-10-17T00:22:59.164Z,15.50
2022-10-17T00:25:25.804Z,15.40
2022-10-17T00:27:52.378Z,15.40
2022-10-17T00:30:19.155Z,15.40
2022-10-17T00:32:45.872Z,15.30
2022-10-17T00:35:12.613Z,15.30
2022-10-17T00:37:39.228Z,15.30
2022-10-17T00:40:07.048Z,15.40
2022-10-17T00:42:34.196Z,15.40
2022-10-17T00:45:18.757Z,15.40
2022-10-17T00:47:53.813Z,15.50
2022-10-17T00:50:20.717Z,15.50
2022-10-17T00:52:48.784Z,15.50
2022-10-17T00:55:31.114Z,15.60
2022-10-17T00:58:00.587Z,15.50
2022-10-17T01:00:27.200Z,15.50
2022-10-17T01:02:54.013Z,15.60
2022-10-17T01:05:21.217Z,15.60
2022-10-17T01:07:50.587Z,15.60
2022-10-17T01:10:17.975Z,15.60
2022-10-17T01:13:15.972Z,15.60
2022-10-17T01:15:52.461Z,15.60
2022-10-17T01:18:38.518Z,15.60
2022-10-17T01:21:24.382Z,15.60
2022-10-17T01:24:15.944Z,15.50
2022-10-17T01:27:19.818Z,15.50
2022-10-17T01:30:10.479Z,15.50
2022-10-17T01:32:37.031Z,15.30
2022-10-17T01:35:18.948Z,15.40
2022-10-17T01:40:37.277Z,15.40
2022-10-17T01:43:11.113Z,15.30
2022-10-17T01:45:43.283Z,15.30
2022-10-17T01:48:17.496Z,15.30
2022-10-17T01:50:53.393Z,15.30
2022-10-17T01:53:34.163Z,15.30
2022-10-17T01:56:04.438Z,15.30
2022-10-17T01:58:39.941Z,15.30
2022-10-17T02:01:09.799Z,15.40
2022-10-17T02:03:38.090Z,15.40
2022-10-17T02:06:05.532Z,15.40
2022-10-17T02:08:47.833Z,15.40
2022-10-17T02:11:18.589Z,15.40
2022-10-17T02:14:30.089Z,15.40
2022-10-17T02:17:21.459Z,15.40
2022-10-17T02:20:00.357Z,15.40
2022-10-17T02:22:46.137Z,15.40
2022-10-17T02:25:25.517Z,15.40
2022-10-17T02:28:07.103Z,15.40
2022-10-17T02:30:55.174Z,15.50
2022-10-17T02:33:44.405Z,15.50
2022-10-17T02:36:19.679Z,15.50
2022-10-17T02:38:47.024Z,15.50
2022-10-17T02:41:16.509Z,15.50
2022-10-17T02:43:45.713Z,15.50
2022-10-17T02:46:21.030Z,15.50
2022-10-17T02:48:52.661Z,15.60
2022-10-17T02:51:34.541Z,15.70
2022-10-17T02:54:15.517Z,15.70
2022-10-17T02:56:52.773Z,15.70
2022-10-17T02:59:22.530Z,15.70
2022-10-17T03:01:51.491Z,15.70
2022-10-17T03:04:18.973Z,15.70
2022-10-17T03:06:47.345Z,15.80
2022-10-17T03:09:14.270Z,15.80
2022-10-17T03:11:40.825Z,15.90
2022-10-17T03:14:07.540Z,15.80
2022-10-17T03:16:34.199Z,15.90
2022-10-17T03:19:00.755Z,15.90
2022-10-17T03:21:27.343Z,16.00
2022-10-17T03:23:53.919Z,16.00
2022-10-17T03:26:20.925Z,16.00
2022-10-17T03:28:50.662Z,16.00
2022-10-17T03:31:20.287Z,16.00
2022-10-17T03:33:46.937Z,16.00
2022-10-17T03:36:15.757Z,16.00
2022-10-17T03:38:43.054Z,16.00
2022-10-17T03:41:09.695Z,16.00
2022-10-17T03:43:36.358Z,16.10
2022-10-17T03:46:03.413Z,16.10
2022-10-17T03:48:31.344Z,16.10
2022-10-17T03:51:05.965Z,16.10
2022-10-17T03:53:33.084Z,16.10
2022-10-17T03:56:17.576Z,16.10
2022-10-17T03:58:44.299Z,16.10
2022-10-17T04:01:13.409Z,16.10
2022-10-17T04:03:40.696Z,16.10
2022-10-17T04:06:07.966Z,16.10
2022-10-17T04:08:35.195Z,16.10
2022-10-17T04:11:04.178Z,16.10
2022-10-17T04:13:31.077Z,16.10
2022-10-17T04:16:04.639Z,16.20
2022-10-17T04:18:31.661Z,16.20
2022-10-17T04:20:58.248Z,16.10
2022-10-17T04:23:26.431Z,16.10
2022-10-17T04:25:59.455Z,16.20
2022-10-17T04:28:27.840Z,16.10
2022-10-17T04:31:05.479Z,16.20
2022-10-17T04:33:32.739Z,16.10
2022-10-17T04:36:04.439Z,16.20
2022-10-17T04:38:31.295Z,16.20
2022-10-17T04:41:04.537Z,16.20
2022-10-17T04:43:31.752Z,16.10
2022-10-17T04:45:58.890Z,16.10
2022-10-17T04:48:25.363Z,16.10
2022-10-17T04:50:55.110Z,16.20
2022-10-17T04:53:22.183Z,16.20
2022-10-17T04:55:48.720Z,16.20
2022-10-17T04:58:15.379Z,16.20
2022-10-17T05:00:41.943Z,16.20
2022-10-17T05:03:08.497Z,16.20
2022-10-17T05:05:37.442Z,16.20
2022-10-17T05:08:04.307Z,16.20
2022-10-17T05:10:30.898Z,16.10
2022-10-17T05:12:57.654Z,16.20
2022-10-17T05:15:24.152Z,16.20
2022-10-17T05:17:53.987Z,16.20
2022-10-17T05:20:20.477Z,16.20
2022-10-17T05:22:47.001Z,16.20
2022-10-17T05:25:13.512Z,16.20
2022-10-17T05:27:40.017Z,16.20
2022-10-17T05:30:06.929Z,16.20
2022-10-17T05:32:33.611Z,16.20
2022-10-17T05:35:00.289Z,16.20
2022-10-17T05:37:29.043Z,16.20
2022-10-17T05:39:55.548Z,16.30
2022-10-17T05:42:22.174Z,16.30
2022-10-17T05:44:48.699Z,16.30
2022-10-17T05:47:15.187Z,16.30
2022-10-17T05:49:46.394Z,16.30
2022-10-17T05:52:17.834Z,16.30
2022-10-17T05:54:44.385Z,16.30
2022-10-17T05:57:11.298Z,16.40
2022-10-17T05:59:37.784Z,16.40
2022-10-17T06:02:04.457Z,16.40
2022-10-17T06:04:31.010Z,16.40
2022-10-17T06:06:57.486Z,16.40
2022-10-17T06:09:24.103Z,16.40
2022-10-17T06:11:50.592Z,16.40
2022-10-17T06:14:17.121Z,16.40
2022-10-17T06:16:43.743Z,16.40
2022-10-17T06:19:11.503Z,16.40
2022-10-17T06:21:38.832Z,16.40
2022-10-17T06:24:05.701Z,16.40
2022-10-17T06:26:32.220Z,16.40
2022-10-17T06:28:58.791Z,16.40
2022-10-17T06:31:25.514Z,16.40
2022-10-17T06:33:52.011Z,16.40
2022-10-17T06:36:18.614Z,16.40
2022-10-17T06:38:45.243Z,16.50
2022-10-17T06:41:14.089Z,16.50
2022-10-17T06:43:43.145Z,16.50
2022-10-17T06:46:09.640Z,16.50
2022-10-17T06:48:36.199Z,16.60
2022-10-17T06:51:04.484Z,16.60
2022-10-17T06:53:32.155Z,16.70
2022-10-17T06:56:02.953Z,16.70
2022-10-17T06:58:33.552Z,16.80
2022-10-17T07:01:01.230Z,16.70
2022-10-17T07:03:28.006Z,16.70
2022-10-17T07:05:55.202Z,16.70
2022-10-17T07:08:21.924Z,16.70
2022-10-17T07:10:48.762Z,16.80
2022-10-17T07:13:15.334Z,16.80
2022-10-17T07:15:41.904Z,16.80
2022-10-17T07:18:08.471Z,16.90
2022-10-17T07:20:35.235Z,16.90
2022-10-17T07:23:02.039Z,16.90
2022-10-17T07:25:28.568Z,17.00
2022-10-17T07:27:55.332Z,17.00
2022-10-17T07:30:21.950Z,17.00
2022-10-17T07:32:48.478Z,17.00
2022-10-17T07:35:15.158Z,17.00
2022-10-17T07:37:41.784Z,17.00
2022-10-17T07:40:08.378Z,17.00
2022-10-17T07:45:09.853Z,17.00
2022-10-17T07:47:36.399Z,17.00
2022-10-17T07:50:03.791Z,17.10
2022-10-17T07:52:30.618Z,17.10
2022-10-17T07:54:57.370Z,17.20
2022-10-17T07:57:23.979Z,17.20
2022-10-17T07:59:51.255Z,17.20
2022-10-17T08:02:22.719Z,17.20
2022-10-17T08:04:49.452Z,17.20
2022-10-17T08:07:22.038Z,17.20
2022-10-17T08:09:50.848Z,17.20
2022-10-17T08:12:17.627Z,17.10
2022-10-17T08:14:44.311Z,17.10
2022-10-17T08:17:10.811Z,17.10
2022-10-17T08:19:38.354Z,17.20
2022-10-17T08:22:04.837Z,17.20
2022-10-17T08:24:31.638Z,17.20
2022-10-17T08:26:58.276Z,17.20
2022-10-17T08:29:25.051Z,17.30
2022-10-17T08:31:56.282Z,17.40
2022-10-17T08:34:27.568Z,17.40
2022-10-17T08:36:54.111Z,17.40
2022-10-17T08:39:20.667Z,17.40
2022-10-17T08:42:05.698Z,17.50
2022-10-17T08:44:44.139Z,17.50
2022-10-17T08:47:13.260Z,17.50
2022-10-17T08:49:43.347Z,17.60
2022-10-17T08:52:25.584Z,17.60
2022-10-17T08:54:52.163Z,17.70
2022-10-17T08:57:18.706Z,17.70
2022-10-17T08:59:50.047Z,17.70
2022-10-17T09:02:19.281Z,17.60
2022-10-17T09:04:45.727Z,17.60
2022-10-17T09:07:22.200Z,17.70
2022-10-17T09:09:57.564Z,17.70
2022-10-17T09:12:27.824Z,17.70
2022-10-17T09:14:54.586Z,17.70
2022-10-17T09:17:40.029Z,17.80
2022-10-17T09:20:15.933Z,17.80
2022-10-17T09:22:47.553Z,17.80
2022-10-17T09:25:16.954Z,17.70
2022-10-17T09:27:48.553Z,17.80
2022-10-17T09:30:40.041Z,17.80
2022-10-17T09:33:23.066Z,17.90
2022-10-17T09:35:58.612Z,17.90
2022-10-17T09:38:27.262Z,17.90
2022-10-17T09:40:58.886Z,17.90
2022-10-17T09:43:26.511Z,17.90
2022-10-17T09:46:02.428Z,18.00
2022-10-17T09:48:33.367Z,17.90
2022-10-17T09:51:14.598Z,17.90
2022-10-17T09:53:51.976Z,17.90
2022-10-17T09:56:19.582Z,18.00
2022-10-17T09:58:50.458Z,18.00
2022-10-17T10:01:22.731Z,18.00
2022-10-17T10:04:09.284Z,18.00
2022-10-17T10:06:36.091Z,18.00
2022-10-17T10:09:05.087Z,18.00
2022-10-17T10:11:43.754Z,18.00
2022-10-17T10:14:19.871Z,18.10
2022-10-17T10:16:46.910Z,18.00
2022-10-17T10:19:33.660Z,18.00
2022-10-17T10:22:01.488Z,18.10
2022-10-17T10:24:31.030Z,18.00
2022-10-17T10:26:59.903Z,18.10
2022-10-17T10:29:36.935Z,18.10
2022-10-17T10:32:12.776Z,18.10
2022-10-17T10:34:46.244Z,18.10
2022-10-17T10:37:36.035Z,18.00
2022-10-17T10:40:03.949Z,18.10
2022-10-17T10:42:37.582Z,18.00
2022-10-17T10:45:04.103Z,18.10
2022-10-17T10:47:32.331Z,18.10
2022-10-17T10:50:08.180Z,18.20
2022-10-17T10:52:49.013Z,18.20
2022-10-17T10:55:18.053Z,18.20
2022-10-17T10:57:46.960Z,18.20
2022-10-17T11:00:19.721Z,18.20
2022-10-17T11:02:53.719Z,18.20
2022-10-17T11:05:20.183Z,18.20
2022-10-17T11:08:06.935Z,18.20
2022-10-17T11:10:58.528Z,18.10
2022-10-17T11:13:28.918Z,18.10
2022-10-17T11:15:59.531Z,18.00
2022-10-17T11:18:41.450Z,18.10
2022-10-17T11:21:07.941Z,18.10
2022-10-17T11:23:42.892Z,18.00
2022-10-17T11:26:13.134Z,18.00
2022-10-17T11:28:39.774Z,18.10
2022-10-17T11:31:08.430Z,18.10
2022-10-17T11:33:41.845Z,18.10
2022-10-17T11:36:09.455Z,18.10
2022-10-17T11:38:45.313Z,18.20
2022-10-17T11:41:24.049Z,18.20
2022-10-17T11:43:53.187Z,18.20
2022-10-17T11:46:27.574Z,18.20
2022-10-17T11:49:00.093Z,18.20
2022-10-17T11:54:18.751Z,18.20
2022-10-17T11:56:51.276Z,18.10
2022-10-17T11:59:17.735Z,18.20
2022-10-17T12:01:47.092Z,18.10
2022-10-17T12:04:18.908Z,18.10
2022-10-17T12:06:51.583Z,18.10
2022-10-17T12:09:18.834Z,18.10
2022-10-17T12:11:50.711Z,18.10
2022-10-17T12:14:37.387Z,18.10
2022-10-17T12:17:04.931Z,18.00
2022-10-17T12:19:35.533Z,18.00
2022-10-17T12:22:21.002Z,18.10
2022-10-17T12:24:56.707Z,18.10
2022-10-17T12:27:28.684Z,18.10
2022-10-17T12:29:59.412Z,18.00
2022-10-17T12:32:27.844Z,17.90
2022-10-17T12:34:59.921Z,17.90
2022-10-17T12:37:41.683Z,18.00
2022-10-17T12:40:28.469Z,18.00
2022-10-17T12:42:55.016Z,18.00
2022-10-17T12:45:40.339Z,18.00
2022-10-17T12:48:09.204Z,18.00
2022-10-17T12:50:54.380Z,17.90
2022-10-17T12:53:23.732Z,17.80
2022-10-17T12:55:51.778Z,17.90
2022-10-17T12:58:18.314Z,17.80
2022-10-17T13:01:11.740Z,17.80
2022-10-17T13:03:47.074Z,17.80
2022-10-17T13:06:25.520Z,17.70
2022-10-17T13:09:04.104Z,17.60
2022-10-17T13:11:32.885Z,17.70
2022-10-17T13:14:01.272Z,17.70
2022-10-17T13:16:32.019Z,17.80
2022-10-17T13:18:59.056Z,17.90
2022-10-17T13:21:26.060Z,18.00
2022-10-17T13:23:54.262Z,18.10
2022-10-17T13:26:23.030Z,18.20
2022-10-17T13:29:04.107Z,18.20
2022-10-17T13:31:32.524Z,18.20
2022-10-17T13:34:00.173Z,18.20
2022-10-17T13:36:27.775Z,18.30
2022-10-17T13:38:54.586Z,18.30
2022-10-17T13:41:37.054Z,18.30
2022-10-17T13:44:07.487Z,18.30
2022-10-17T13:46:39.351Z,18.30
2022-10-17T13:49:28.121Z,18.40
2022-10-17T13:51:55.806Z,18.30
2022-10-17T13:54:32.230Z,18.30
2022-10-17T13:56:59.587Z,18.30
2022-10-17T13:59:30.634Z,18.30
2022-10-17T14:01:57.257Z,18.30
2022-10-17T14:04:23.803Z,18.30
2022-10-17T14:06:52.245Z,18.40
2022-10-17T14:09:23.999Z,18.40
2022-10-17T14:12:16.559Z,18.40
2022-10-17T14:15:09.441Z,18.40
2022-10-17T14:17:34.299Z,18.50
2022-10-17T14:23:04.469Z,18.50
2022-10-17T14:25:38.427Z,18.60
2022-10-17T14:28:11.600Z,18.60
2022-10-17T14:30:57.074Z,18.60
2022-10-17T14:33:28.423Z,18.70
2022-10-17T14:35:56.353Z,18.80
2022-10-17T14:38:22.974Z,18.80
2022-10-17T14:41:15.630Z,18.90
2022-10-17T14:43:52.587Z,18.90
2022-10-17T14:46:19.206Z,18.90
2022-10-17T14:48:47.616Z,18.90
2022-10-17T14:51:16.213Z,18.90
2022-10-17T14:54:04.944Z,18.90
2022-10-17T14:56:42.000Z,18.90
2022-10-17T14:59:13.725Z,18.90
2022-10-17T15:01:44.689Z,18.90
2022-10-17T15:04:11.184Z,18.80
2022-10-17T15:06:37.691Z,18.80
2022-10-17T15:09:04.513Z,18.80
2022-10-17T15:11:30.992Z,18.70
2022-10-17T15:13:57.511Z,18.70
2022-10-17T15:16:30.128Z,18.80
2022-10-17T15:18:56.747Z,18.80
2022-10-17T15:21:39.177Z,18.80
2022-10-17T15:24:07.203Z,18.70
2022-10-17T15:26:34.025Z,18.60
2022-10-17T15:29:01.040Z,18.60
2022-10-17T15:31:29.223Z,18.60
2022-10-17T15:33:55.728Z,18.60
2022-10-17T15:36:38.833Z,18.60
2022-10-17T15:39:05.495Z,18.60
2022-10-17T15:41:32.828Z,18.50
2022-10-17T15:43:59.521Z,18.50
2022-10-17T15:46:30.237Z,18.40
2022-10-17T15:48:57.610Z,18.40
2022-10-17T15:51:24.203Z,18.40
2022-10-17T15:53:50.691Z,18.40
2022-10-17T15:56:22.255Z,18.40
2022-10-17T15:58:49.252Z,18.40
2022-10-17T16:01:20.043Z,18.40
2022-10-17T16:03:48.807Z,18.40
2022-10-17T16:06:15.394Z,18.20
2022-10-17T16:08:41.930Z,18.20
2022-10-17T16:11:13.310Z,18.20
2022-10-17T16:13:41.382Z,18.20
2022-10-17T16:16:10.410Z,18.20
2022-10-17T16:18:36.905Z,18.20
2022-10-17T16:21:03.653Z,18.10
2022-10-17T16:23:30.154Z,18.10
2022-10-17T16:25:56.658Z,18.10
2022-10-17T16:28:23.166Z,18.00
2022-10-17T16:30:49.717Z,18.00
2022-10-17T16:33:16.231Z,18.00
2022-10-17T16:35:42.816Z,18.00
2022-10-17T16:38:09.334Z,18.00
2022-10-17T16:40:37.603Z,18.00
2022-10-17T16:43:04.100Z,17.90
2022-10-17T16:45:30.737Z,17.80
2022-10-17T16:47:57.325Z,17.80
2022-10-17T16:50:24.390Z,17.90
2022-10-17T16:52:50.926Z,17.80
2022-10-17T16:55:18.910Z,17.80
2022-10-17T17:00:12.666Z,17.70
2022-10-17T17:02:39.160Z,17.60
2022-10-17T17:05:05.938Z,17.50
2022-10-17T17:07:33.565Z,17.60
2022-10-17T17:10:00.148Z,17.60
2022-10-17T17:12:26.832Z,17.50
2022-10-17T17:14:53.348Z,17.60
2022-10-17T17:17:30.565Z,17.60
2022-10-17T17:20:04.131Z,17.60
2022-10-17T17:22:30.671Z,17.60
2022-10-17T17:24:57.159Z,17.50
2022-10-17T17:27:25.018Z,17.50
2022-10-17T17:29:51.572Z,17.40
2022-10-17T17:32:18.108Z,17.50
2022-10-17T17:34:44.703Z,17.40
2022-10-17T17:37:11.309Z,17.40
2022-10-17T17:39:37.899Z,17.40
2022-10-17T17:42:04.451Z,17.40
2022-10-17T17:44:31.839Z,17.40
2022-10-17T17:46:58.388Z,17.40
2022-10-17T17:49:24.879Z,17.40
2022-10-17T17:51:51.430Z,17.30
2022-10-17T17:54:17.966Z,17.30
2022-10-17T17:56:44.539Z,17.30
2022-10-17T17:59:12.264Z,17.30
2022-10-17T18:01:39.258Z,17.30
2022-10-17T18:04:08.520Z,17.30
2022-10-17T18:06:35.886Z,17.30
2022-10-17T18:09:02.627Z,17.40
2022-10-17T18:11:29.295Z,17.40
2022-10-17T18:13:57.218Z,17.30
2022-10-17T18:16:24.612Z,17.30
2022-10-17T18:18:51.163Z,17.30
2022-10-17T18:21:17.672Z,17.30
2022-10-17T18:23:45.348Z,17.20
2022-10-17T18:26:12.510Z,17.20
2022-10-17T18:31:15.319Z,17.10
2022-10-17T18:33:42.887Z,17.20
2022-10-17T18:36:10.926Z,17.20
2022-10-17T18:38:37.483Z,17.10
2022-10-17T18:41:11.518Z,17.10
2022-10-17T18:43:38.976Z,17.10
2022-10-17T18:46:10.874Z,17.10
2022-10-17T18:48:41.121Z,17.10
2022-10-17T18:51:08.297Z,17.20
2022-10-17T18:53:34.903Z,17.10
2022-10-17T18:56:03.289Z,17.10
2022-10-17T18:58:29.822Z,17.10
2022-10-17T19:01:01.281Z,17.10
2022-10-17T19:03:27.784Z,17.00
2022-10-17T19:05:56.682Z,17.00
2022-10-17T19:08:25.628Z,17.00
2022-10-17T19:10:52.222Z,17.00
2022-10-17T19:13:21.518Z,17.00
2022-10-17T19:15:48.354Z,17.00
2022-10-17T19:18:14.843Z,16.90
2022-10-17T19:20:41.538Z,16.90
2022-10-17T19:23:08.035Z,16.90
2022-10-17T19:25:34.569Z,16.90
2022-10-17T19:28:01.137Z,16.90
2022-10-17T19:30:27.925Z,16.90
2022-10-17T19:32:54.477Z,16.80
2022-10-17T19:35:20.995Z,16.70
2022-10-17T19:37:47.545Z,16.80
2022-10-17T19:40:14.194Z,16.80
2022-10-17T19:42:40.687Z,16.80
2022-10-17T19:45:07.678Z,16.70
2022-10-17T19:47:34.289Z,16.70
2022-10-17T19:50:00.820Z,16.70
2022-10-17T19:52:27.640Z,16.70
2022-10-17T19:54:54.207Z,16.70
2022-10-17T19:57:20.755Z,16.70
2022-10-17T19:59:48.581Z,16.70
2022-10-17T20:02:16.796Z,16.70
2022-10-17T20:04:54.337Z,16.70
2022-10-17T20:07:29.828Z,16.70
2022-10-17T20:09:56.363Z,16.60
2022-10-17T20:12:22.839Z,16.60
2022-10-17T20:14:49.366Z,16.60
2022-10-17T20:17:15.863Z,16.60
2022-10-17T20:19:42.363Z,16.60
2022-10-17T20:22:08.864Z,16.60
2022-10-17T20:24:35.482Z,16.50
2022-10-17T20:27:02.060Z,16.50
2022-10-17T20:29:28.603Z,16.50
2022-10-17T20:31:55.184Z,16.60
2022-10-17T20:34:21.708Z,16.50
2022-10-17T20:36:48.200Z,16.50
2022-10-17T20:39:15.585Z,16.50
2022-10-17T20:41:42.673Z,16.50
2022-10-17T20:44:09.631Z,16.50
2022-10-17T20:46:37.862Z,16.50
2022-10-17T20:49:08.434Z,16.50
2022-10-17T20:51:35.424Z,16.50
2022-10-17T20:54:02.838Z,16.60
2022-10-17T20:56:30.658Z,16.60
2022-10-17T20:59:01.452Z,16.60
2022-10-17T21:01:28.801Z,16.60
2022-10-17T21:03:57.067Z,16.50
2022-10-17T21:06:26.314Z,16.60
2022-10-17T21:08:54.089Z,16.50
2022-10-17T21:11:21.840Z,16.60
2022-10-17T21:13:53.202Z,16.50
2022-10-17T21:16:19.684Z,16.50
2022-10-17T21:18:46.218Z,16.50
2022-10-17T21:21:14.450Z,16.50
2022-10-17T21:23:41.859Z,16.50
2022-10-17T21:26:09.681Z,16.50
2022-10-17T21:28:37.066Z,16.50
2022-10-17T21:31:07.466Z,16.50
2022-10-17T21:33:33.967Z,16.50
2022-10-17T21:36:00.463Z,16.40
2022-10-17T21:38:27.026Z,16.50
2022-10-17T21:40:55.361Z,16.40
2022-10-17T21:43:22.627Z,16.40
2022-10-17T21:45:49.135Z,16.40
2022-10-17T21:48:15.632Z,16.40
2022-10-17T21:50:42.272Z,16.30
2022-10-17T21:53:08.889Z,16.30
2022-10-17T21:55:36.406Z,16.30
2022-10-17T21:58:03.540Z,16.30
2022-10-17T22:00:30.193Z,16.30
2022-10-17T22:02:56.685Z,16.20
2022-10-17T22:05:23.200Z,16.20
2022-10-17T22:07:49.795Z,16.20
2022-10-17T22:10:16.300Z,16.20
2022-10-17T22:12:42.795Z,16.20
2022-10-17T22:15:09.318Z,16.20
2022-10-17T22:17:35.822Z,16.20
2022-10-17T22:20:02.315Z,16.20
2022-10-17T22:22:29.936Z,16.20
2022-10-17T22:24:56.414Z,16.20
2022-10-17T22:27:22.946Z,16.20
2022-10-17T22:29:49.460Z,16.10
2022-10-17T22:32:20.064Z,16.10
2022-10-17T22:34:48.960Z,16.10
2022-10-17T22:37:15.540Z,16.10
2022-10-17T22:39:42.186Z,16.10
2022-10-17T22:42:08.790Z,16.10
2022-10-17T22:44:35.433Z,16.00
2022-10-17T22:47:01.929Z,16.00
2022-10-17T22:49:28.423Z,16.00
2022-10-17T22:51:54.937Z,16.00
2022-10-17T22:54:21.410Z,16.00
2022-10-17T22:56:47.915Z,16.00
2022-10-17T22:59:15.239Z,16.00
2022-10-17T23:01:41.780Z,15.90
2022-10-17T23:04:08.333Z,15.90
2022-10-17T23:06:34.824Z,15.90
2022-10-17T23:09:01.405Z,15.90
2022-10-17T23:11:27.912Z,15.90
2022-10-17T23:13:54.596Z,15.90
2022-10-17T23:16:21.086Z,15.80
2022-10-17T23:18:47.574Z,15.80
2022-10-17T23:21:14.232Z,15.80
2022-10-17T23:23:40.882Z,15.80
2022-10-17T23:26:09.285Z,15.80
2022-10-17T23:28:36.208Z,15.80
2022-10-17T23:31:13.365Z,15.70
2022-10-17T23:33:41.198Z,15.70
2022-10-17T23:36:08.920Z,15.70
2022-10-17T23:38:35.427Z,15.70
2022-10-17T23:41:02.079Z,15.70
2022-10-17T23:43:28.574Z,15.70
2022-10-17T23:45:55.079Z,15.60
2022-10-17T23:48:22.743Z,15.70
2022-10-17T23:50:49.459Z,15.70
2022-10-17T23:53:16.012Z,15.70
2022-10-17T23:55:42.546Z,15.70
2022-10-17T23:58:09.030Z,15.70
